首页
METAR-TAF:

METAR-TAF

机场 :

普爾科沃機場

圣彼得堡, 俄罗斯

纬度: 59-58N, 经度: 030-18E, 海拔: 4米

当前天气观测

该预报发布于53分钟前的22:30 UTC
风速10节,风向西北
温度 -3°C
湿度 80%
气压 1011 hPa
能见度10公里或以上
1500米以下无云,无积雨云

METAR: ULLI 262230Z 31005MPS CAVOK M03/M06 Q1011 R28L/290050 NOSIG

时间: 02:23 (23:23 UTC)

预报

该预报发布于3小时和23分钟前的20:00 UTC
预报有效从26日的 21点(UTC)到 27日的 21点(UTC)
风速10节,风向西北,有时为19节阵风
能见度10公里或以上
多云层高于1200英尺
多云层高于2000英尺
短暂存在
从 26日的 21点(UTC)到 27日的 02点(UTC)
能見度: 3100
多云层高于1100英尺
多云层高于2000英尺, 积雨云.
小阵雪
短暂存在
从 27日的 02点(UTC)到 27日的 06点(UTC)
能見度: 3100
多云层高于1100英尺
轻雾
成为
从 27日的 06点(UTC)到 27日的 08点(UTC)
多云层高于2500英尺
成为
从 27日的 12点(UTC)到 27日的 14点(UTC)
风速6节,风向西,有时为16节阵风

TAF: ULLI 262000Z 2621/2721 31005G10MPS 9999 BKN012 BKN020 TEMPO 2621/2702 3100 -SHSN BKN011 BKN020CB TEMPO 2702/2706 3100 BR BKN011 BECMG 2706/2708 BKN025 BECMG 2712/2714 27003G08MPS

超过4000个机场的气象观测和天气预报(METAR&TAF报告)。

可查询的气象台以黄色和红色小点在地图上表示。

将鼠标移到小点上方,可查看气象台名称。

然后点击查看天气观测和预报。

如需切换地图:点击带黑十字的绿色按钮放大地图;点击带横线的绿色按钮缩小地图;或者点击绿色箭头查看邻近地区的地图。


METAR-TAF: